sensor_id;sensor_type;location;lat;lon;timestamp;P1;durP1;ratioP1;P2;durP2;ratioP2
58139;SDS011;53185;47.378;18.922;2024-01-15T00:01:52;94.80;;;34.45;;
58139;SDS011;53185;47.378;18.922;2024-01-15T00:04:19;103.20;;;35.35;;
58139;SDS011;53185;47.378;18.922;2024-01-15T00:06:48;98.70;;;33.67;;
58139;SDS011;53185;47.378;18.922;2024-01-15T00:09:16;80.65;;;31.92;;
58139;SDS011;53185;47.378;18.922;2024-01-15T00:11:43;78.50;;;30.85;;
58139;SDS011;53185;47.378;18.922;2024-01-15T00:14:10;93.35;;;32.15;;
58139;SDS011;53185;47.378;18.922;2024-01-15T00:16:40;107.50;;;35.55;;
58139;SDS011;53185;47.378;18.922;2024-01-15T00:19:07;83.07;;;30.75;;
58139;SDS011;53185;47.378;18.922;2024-01-15T00:21:35;77.18;;;30.17;;
58139;SDS011;53185;47.378;18.922;2024-01-15T00:24:04;81.05;;;31.12;;
58139;SDS011;53185;47.378;18.922;2024-01-15T00:26:31;70.25;;;27.75;;
58139;SDS011;53185;47.378;18.922;2024-01-15T00:28:59;87.18;;;30.67;;
58139;SDS011;53185;47.378;18.922;2024-01-15T00:31:26;89.22;;;32.63;;
58139;SDS011;53185;47.378;18.922;2024-01-15T00:33:54;86.35;;;31.10;;
58139;SDS011;53185;47.378;18.922;2024-01-15T00:36:21;75.10;;;31.60;;
58139;SDS011;53185;47.378;18.922;2024-01-15T00:38:48;76.62;;;30.92;;
58139;SDS011;53185;47.378;18.922;2024-01-15T00:41:16;89.72;;;31.17;;
58139;SDS011;53185;47.378;18.922;2024-01-15T00:43:44;76.53;;;29.70;;
58139;SDS011;53185;47.378;18.922;2024-01-15T00:46:17;81.78;;;30.42;;
58139;SDS011;53185;47.378;18.922;2024-01-15T00:48:44;75.78;;;29.70;;
58139;SDS011;53185;47.378;18.922;2024-01-15T00:51:12;82.88;;;32.72;;
58139;SDS011;53185;47.378;18.922;2024-01-15T00:53:39;76.15;;;30.40;;
58139;SDS011;53185;47.378;18.922;2024-01-15T00:56:07;96.35;;;31.80;;
58139;SDS011;53185;47.378;18.922;2024-01-15T00:58:34;83.57;;;33.30;;
58139;SDS011;53185;47.378;18.922;2024-01-15T01:01:01;89.80;;;30.90;;
58139;SDS011;53185;47.378;18.922;2024-01-15T01:03:28;88.87;;;33.10;;
58139;SDS011;53185;47.378;18.922;2024-01-15T01:05:56;81.93;;;33.20;;
58139;SDS011;53185;47.378;18.922;2024-01-15T01:08:24;91.25;;;34.97;;
58139;SDS011;53185;47.378;18.922;2024-01-15T01:10:51;100.90;;;34.80;;
58139;SDS011;53185;47.378;18.922;2024-01-15T01:13:18;96.07;;;33.50;;
58139;SDS011;53185;47.378;18.922;2024-01-15T01:15:46;88.32;;;33.88;;
58139;SDS011;53185;47.378;18.922;2024-01-15T01:18:13;70.60;;;29.70;;
58139;SDS011;53185;47.378;18.922;2024-01-15T01:20:41;70.53;;;30.75;;
58139;SDS011;53185;47.378;18.922;2024-01-15T01:23:08;80.40;;;28.27;;
58139;SDS011;53185;47.378;18.922;2024-01-15T01:25:36;84.20;;;32.35;;
58139;SDS011;53185;47.378;18.922;2024-01-15T01:28:03;85.05;;;32.70;;
58139;SDS011;53185;47.378;18.922;2024-01-15T01:30:30;80.50;;;31.92;;
58139;SDS011;53185;47.378;18.922;2024-01-15T01:32:58;66.22;;;28.92;;
58139;SDS011;53185;47.378;18.922;2024-01-15T01:35:25;75.07;;;28.87;;
58139;SDS011;53185;47.378;18.922;2024-01-15T01:37:52;71.05;;;26.77;;
58139;SDS011;53185;47.378;18.922;2024-01-15T01:40:20;59.08;;;25.52;;
58139;SDS011;53185;47.378;18.922;2024-01-15T01:42:47;74.22;;;27.48;;
58139;SDS011;53185;47.378;18.922;2024-01-15T01:45:15;69.53;;;27.40;;
58139;SDS011;53185;47.378;18.922;2024-01-15T01:47:42;76.15;;;28.08;;
58139;SDS011;53185;47.378;18.922;2024-01-15T01:50:11;75.37;;;29.02;;
58139;SDS011;53185;47.378;18.922;2024-01-15T01:52:40;61.92;;;26.08;;
58139;SDS011;53185;47.378;18.922;2024-01-15T01:55:08;73.32;;;27.15;;
58139;SDS011;53185;47.378;18.922;2024-01-15T01:57:36;66.68;;;26.12;;
58139;SDS011;53185;47.378;18.922;2024-01-15T02:00:04;72.65;;;26.67;;
58139;SDS011;53185;47.378;18.922;2024-01-15T02:02:37;66.68;;;25.35;;
58139;SDS011;53185;47.378;18.922;2024-01-15T02:05:05;74.87;;;26.67;;
58139;SDS011;53185;47.378;18.922;2024-01-15T02:07:34;75.25;;;29.83;;
58139;SDS011;53185;47.378;18.922;2024-01-15T02:10:02;79.93;;;29.23;;
58139;SDS011;53185;47.378;18.922;2024-01-15T02:12:30;68.10;;;27.87;;
58139;SDS011;53185;47.378;18.922;2024-01-15T02:14:57;71.97;;;29.33;;
58139;SDS011;53185;47.378;18.922;2024-01-15T02:17:24;76.28;;;27.55;;
58139;SDS011;53185;47.378;18.922;2024-01-15T02:19:53;82.12;;;26.35;;
58139;SDS011;53185;47.378;18.922;2024-01-15T02:22:20;77.10;;;28.42;;
58139;SDS011;53185;47.378;18.922;2024-01-15T02:24:47;83.75;;;27.37;;
58139;SDS011;53185;47.378;18.922;2024-01-15T02:27:20;68.82;;;24.90;;
58139;SDS011;53185;47.378;18.922;2024-01-15T02:29:47;71.18;;;26.23;;
58139;SDS011;53185;47.378;18.922;2024-01-15T02:32:16;64.93;;;25.95;;
58139;SDS011;53185;47.378;18.922;2024-01-15T02:34:43;77.40;;;28.20;;
58139;SDS011;53185;47.378;18.922;2024-01-15T02:37:11;67.37;;;25.00;;
58139;SDS011;53185;47.378;18.922;2024-01-15T02:39:38;67.37;;;26.42;;
58139;SDS011;53185;47.378;18.922;2024-01-15T02:42:05;65.95;;;25.67;;
58139;SDS011;53185;47.378;18.922;2024-01-15T02:44:35;61.40;;;25.30;;
58139;SDS011;53185;47.378;18.922;2024-01-15T02:47:02;71.18;;;26.20;;
58139;SDS011;53185;47.378;18.922;2024-01-15T02:49:29;63.75;;;22.95;;
58139;SDS011;53185;47.378;18.922;2024-01-15T02:51:58;71.22;;;26.95;;
58139;SDS011;53185;47.378;18.922;2024-01-15T02:54:25;79.85;;;28.70;;
58139;SDS011;53185;47.378;18.922;2024-01-15T02:56:52;59.67;;;24.55;;
58139;SDS011;53185;47.378;18.922;2024-01-15T02:59:20;59.72;;;25.50;;
58139;SDS011;53185;47.378;18.922;2024-01-15T03:01:47;77.55;;;29.02;;
58139;SDS011;53185;47.378;18.922;2024-01-15T03:04:14;66.47;;;25.65;;
58139;SDS011;53185;47.378;18.922;2024-01-15T03:06:41;86.07;;;30.80;;
58139;SDS011;53185;47.378;18.922;2024-01-15T03:09:09;80.95;;;29.20;;
58139;SDS011;53185;47.378;18.922;2024-01-15T03:11:37;72.90;;;26.52;;
58139;SDS011;53185;47.378;18.922;2024-01-15T03:14:05;73.28;;;28.12;;
58139;SDS011;53185;47.378;18.922;2024-01-15T03:16:33;71.53;;;25.85;;
58139;SDS011;53185;47.378;18.922;2024-01-15T03:19:00;79.43;;;29.90;;
58139;SDS011;53185;47.378;18.922;2024-01-15T03:21:28;87.37;;;30.58;;
58139;SDS011;53185;47.378;18.922;2024-01-15T03:23:55;63.03;;;24.85;;
58139;SDS011;53185;47.378;18.922;2024-01-15T03:26:22;62.92;;;28.25;;
58139;SDS011;53185;47.378;18.922;2024-01-15T03:28:50;67.28;;;28.17;;
58139;SDS011;53185;47.378;18.922;2024-01-15T03:33:48;60.20;;;24.92;;
58139;SDS011;53185;47.378;18.922;2024-01-15T03:36:15;64.85;;;25.70;;
58139;SDS011;53185;47.378;18.922;2024-01-15T03:38:42;70.25;;;26.90;;
58139;SDS011;53185;47.378;18.922;2024-01-15T03:41:10;80.38;;;25.60;;
58139;SDS011;53185;47.378;18.922;2024-01-15T03:43:37;78.70;;;27.02;;
58139;SDS011;53185;47.378;18.922;2024-01-15T03:46:04;69.20;;;25.62;;
58139;SDS011;53185;47.378;18.922;2024-01-15T03:48:34;63.33;;;25.17;;
58139;SDS011;53185;47.378;18.922;2024-01-15T03:51:02;70.82;;;24.52;;
58139;SDS011;53185;47.378;18.922;2024-01-15T03:53:29;67.78;;;26.12;;
58139;SDS011;53185;47.378;18.922;2024-01-15T03:55:57;76.32;;;27.48;;
58139;SDS011;53185;47.378;18.922;2024-01-15T03:58:24;57.13;;;23.85;;
58139;SDS011;53185;47.378;18.922;2024-01-15T04:00:51;70.87;;;25.08;;
58139;SDS011;53185;47.378;18.922;2024-01-15T04:03:19;62.17;;;25.33;;
58139;SDS011;53185;47.378;18.922;2024-01-15T04:05:46;68.87;;;24.23;;
58139;SDS011;53185;47.378;18.922;2024-01-15T04:08:13;58.90;;;24.20;;
58139;SDS011;53185;47.378;18.922;2024-01-15T04:10:41;74.60;;;27.83;;
58139;SDS011;53185;47.378;18.922;2024-01-15T04:13:08;66.47;;;26.17;;
58139;SDS011;53185;47.378;18.922;2024-01-15T04:15:40;70.70;;;26.60;;
58139;SDS011;53185;47.378;18.922;2024-01-15T04:18:08;75.50;;;25.20;;
58139;SDS011;53185;47.378;18.922;2024-01-15T04:20:35;68.22;;;26.73;;
58139;SDS011;53185;47.378;18.922;2024-01-15T04:23:03;68.05;;;25.45;;
58139;SDS011;53185;47.378;18.922;2024-01-15T04:25:30;65.05;;;25.73;;
58139;SDS011;53185;47.378;18.922;2024-01-15T04:27:57;67.68;;;23.90;;
58139;SDS011;53185;47.378;18.922;2024-01-15T04:30:25;65.15;;;25.45;;
58139;SDS011;53185;47.378;18.922;2024-01-15T04:32:52;60.15;;;24.40;;
58139;SDS011;53185;47.378;18.922;2024-01-15T04:35:20;70.62;;;23.58;;
58139;SDS011;53185;47.378;18.922;2024-01-15T04:37:47;67.15;;;27.80;;
58139;SDS011;53185;47.378;18.922;2024-01-15T04:40:15;64.10;;;25.25;;
58139;SDS011;53185;47.378;18.922;2024-01-15T04:42:42;68.32;;;25.50;;
58139;SDS011;53185;47.378;18.922;2024-01-15T04:45:12;55.97;;;23.08;;
58139;SDS011;53185;47.378;18.922;2024-01-15T04:47:40;64.57;;;24.65;;
58139;SDS011;53185;47.378;18.922;2024-01-15T04:50:15;64.68;;;25.42;;
58139;SDS011;53185;47.378;18.922;2024-01-15T04:52:42;78.60;;;27.75;;
58139;SDS011;53185;47.378;18.922;2024-01-15T04:55:10;65.43;;;26.35;;
58139;SDS011;53185;47.378;18.922;2024-01-15T04:57:37;75.15;;;29.35;;
58139;SDS011;53185;47.378;18.922;2024-01-15T05:00:05;78.70;;;30.50;;
58139;SDS011;53185;47.378;18.922;2024-01-15T05:02:32;73.45;;;26.87;;
58139;SDS011;53185;47.378;18.922;2024-01-15T05:05:00;73.07;;;25.35;;
58139;SDS011;53185;47.378;18.922;2024-01-15T05:07:27;85.15;;;28.65;;
58139;SDS011;53185;47.378;18.922;2024-01-15T05:09:55;72.62;;;27.30;;
58139;SDS011;53185;47.378;18.922;2024-01-15T05:12:24;81.07;;;30.52;;
58139;SDS011;53185;47.378;18.922;2024-01-15T05:14:51;85.60;;;32.30;;
58139;SDS011;53185;47.378;18.922;2024-01-15T05:17:19;70.65;;;29.90;;
58139;SDS011;53185;47.378;18.922;2024-01-15T05:19:49;94.45;;;31.70;;
58139;SDS011;53185;47.378;18.922;2024-01-15T05:22:18;112.05;;;39.85;;
58139;SDS011;53185;47.378;18.922;2024-01-15T05:24:45;81.90;;;31.40;;
58139;SDS011;53185;47.378;18.922;2024-01-15T05:27:13;89.40;;;31.70;;
58139;SDS011;53185;47.378;18.922;2024-01-15T05:29:42;86.30;;;32.40;;
58139;SDS011;53185;47.378;18.922;2024-01-15T05:32:09;82.95;;;29.20;;
58139;SDS011;53185;47.378;18.922;2024-01-15T05:34:37;88.65;;;33.35;;
58139;SDS011;53185;47.378;18.922;2024-01-15T05:37:04;91.00;;;31.77;;
58139;SDS011;53185;47.378;18.922;2024-01-15T05:39:33;89.70;;;34.05;;
58139;SDS011;53185;47.378;18.922;2024-01-15T05:42:01;94.30;;;38.08;;
58139;SDS011;53185;47.378;18.922;2024-01-15T05:44:28;115.57;;;39.50;;
58139;SDS011;53185;47.378;18.922;2024-01-15T05:46:55;102.07;;;37.70;;
58139;SDS011;53185;47.378;18.922;2024-01-15T05:49:23;121.45;;;37.75;;
58139;SDS011;53185;47.378;18.922;2024-01-15T05:51:51;115.25;;;37.78;;
58139;SDS011;53185;47.378;18.922;2024-01-15T05:54:19;99.10;;;32.30;;
58139;SDS011;53185;47.378;18.922;2024-01-15T05:56:46;85.43;;;31.87;;
58139;SDS011;53185;47.378;18.922;2024-01-15T05:59:14;73.72;;;32.10;;
58139;SDS011;53185;47.378;18.922;2024-01-15T06:01:41;97.25;;;35.20;;
58139;SDS011;53185;47.378;18.922;2024-01-15T06:04:09;84.95;;;30.92;;
58139;SDS011;53185;47.378;18.922;2024-01-15T06:06:36;97.75;;;31.75;;
58139;SDS011;53185;47.378;18.922;2024-01-15T06:09:07;77.10;;;30.08;;
58139;SDS011;53185;47.378;18.922;2024-01-15T06:11:35;86.53;;;30.23;;
58139;SDS011;53185;47.378;18.922;2024-01-15T06:14:03;78.25;;;30.83;;
58139;SDS011;53185;47.378;18.922;2024-01-15T06:16:30;94.60;;;37.22;;
58139;SDS011;53185;47.378;18.922;2024-01-15T06:18:57;79.03;;;32.80;;
58139;SDS011;53185;47.378;18.922;2024-01-15T06:21:25;87.00;;;32.88;;
58139;SDS011;53185;47.378;18.922;2024-01-15T06:23:52;79.20;;;33.15;;
58139;SDS011;53185;47.378;18.922;2024-01-15T06:26:20;87.47;;;31.37;;
58139;SDS011;53185;47.378;18.922;2024-01-15T06:28:47;88.05;;;32.45;;
58139;SDS011;53185;47.378;18.922;2024-01-15T06:31:14;80.45;;;30.35;;
58139;SDS011;53185;47.378;18.922;2024-01-15T06:33:43;92.00;;;32.47;;
58139;SDS011;53185;47.378;18.922;2024-01-15T06:36:12;83.60;;;32.97;;
58139;SDS011;53185;47.378;18.922;2024-01-15T06:38:39;93.60;;;31.70;;
58139;SDS011;53185;47.378;18.922;2024-01-15T06:41:07;86.40;;;30.98;;
58139;SDS011;53185;47.378;18.922;2024-01-15T06:43:34;130.32;;;56.03;;
58139;SDS011;53185;47.378;18.922;2024-01-15T06:46:01;94.62;;;34.85;;
58139;SDS011;53185;47.378;18.922;2024-01-15T06:48:33;95.18;;;33.20;;
58139;SDS011;53185;47.378;18.922;2024-01-15T06:51:01;85.70;;;31.58;;
58139;SDS011;53185;47.378;18.922;2024-01-15T06:53:35;89.80;;;33.67;;
58139;SDS011;53185;47.378;18.922;2024-01-15T06:56:03;93.62;;;35.25;;
58139;SDS011;53185;47.378;18.922;2024-01-15T06:58:33;98.32;;;39.15;;
58139;SDS011;53185;47.378;18.922;2024-01-15T07:01:00;103.10;;;39.17;;
58139;SDS011;53185;47.378;18.922;2024-01-15T07:03:29;112.40;;;41.97;;
58139;SDS011;53185;47.378;18.922;2024-01-15T07:05:56;103.25;;;38.22;;
58139;SDS011;53185;47.378;18.922;2024-01-15T07:08:23;92.97;;;34.53;;
58139;SDS011;53185;47.378;18.922;2024-01-15T07:10:51;71.95;;;29.35;;
58139;SDS011;53185;47.378;18.922;2024-01-15T07:13:19;93.80;;;33.47;;
58139;SDS011;53185;47.378;18.922;2024-01-15T07:15:46;113.53;;;36.97;;
58139;SDS011;53185;47.378;18.922;2024-01-15T07:18:14;96.32;;;33.75;;
58139;SDS011;53185;47.378;18.922;2024-01-15T07:20:41;80.05;;;31.40;;
58139;SDS011;53185;47.378;18.922;2024-01-15T07:23:09;103.53;;;38.50;;
58139;SDS011;53185;47.378;18.922;2024-01-15T07:25:36;97.10;;;35.92;;
58139;SDS011;53185;47.378;18.922;2024-01-15T07:28:04;90.68;;;36.75;;
58139;SDS011;53185;47.378;18.922;2024-01-15T07:30:31;122.68;;;39.55;;
58139;SDS011;53185;47.378;18.922;2024-01-15T07:32:59;104.45;;;40.88;;
58139;SDS011;53185;47.378;18.922;2024-01-15T07:35:26;113.10;;;43.25;;
58139;SDS011;53185;47.378;18.922;2024-01-15T07:37:55;119.70;;;46.92;;
58139;SDS011;53185;47.378;18.922;2024-01-15T07:40:22;129.05;;;49.10;;
58139;SDS011;53185;47.378;18.922;2024-01-15T07:42:51;110.32;;;42.03;;
58139;SDS011;53185;47.378;18.922;2024-01-15T07:45:19;104.68;;;41.33;;
58139;SDS011;53185;47.378;18.922;2024-01-15T07:47:46;105.53;;;43.78;;
58139;SDS011;53185;47.378;18.922;2024-01-15T07:50:15;117.78;;;44.53;;
58139;SDS011;53185;47.378;18.922;2024-01-15T07:52:42;111.30;;;44.95;;
58139;SDS011;53185;47.378;18.922;2024-01-15T07:55:11;120.00;;;43.78;;
58139;SDS011;53185;47.378;18.922;2024-01-15T07:57:38;132.05;;;50.12;;
58139;SDS011;53185;47.378;18.922;2024-01-15T08:00:05;127.32;;;50.33;;
58139;SDS011;53185;47.378;18.922;2024-01-15T08:02:33;123.97;;;47.92;;
58139;SDS011;53185;47.378;18.922;2024-01-15T08:05:04;127.55;;;46.13;;
58139;SDS011;53185;47.378;18.922;2024-01-15T08:07:32;108.85;;;42.92;;
58139;SDS011;53185;47.378;18.922;2024-01-15T08:10:02;130.80;;;50.67;;
58139;SDS011;53185;47.378;18.922;2024-01-15T08:12:30;136.68;;;46.97;;
58139;SDS011;53185;47.378;18.922;2024-01-15T08:14:58;120.40;;;44.53;;
58139;SDS011;53185;47.378;18.922;2024-01-15T08:17:25;101.53;;;37.88;;
58139;SDS011;53185;47.378;18.922;2024-01-15T08:19:55;87.45;;;33.70;;
58139;SDS011;53185;47.378;18.922;2024-01-15T08:22:23;79.65;;;31.37;;
58139;SDS011;53185;47.378;18.922;2024-01-15T08:24:55;78.75;;;33.03;;
58139;SDS011;53185;47.378;18.922;2024-01-15T08:27:23;78.72;;;30.85;;
58139;SDS011;53185;47.378;18.922;2024-01-15T08:32:49;82.18;;;32.15;;
58139;SDS011;53185;47.378;18.922;2024-01-15T08:35:17;80.05;;;31.77;;
58139;SDS011;53185;47.378;18.922;2024-01-15T08:37:45;76.25;;;29.70;;
58139;SDS011;53185;47.378;18.922;2024-01-15T08:40:14;74.57;;;29.00;;
58139;SDS011;53185;47.378;18.922;2024-01-15T08:42:43;79.28;;;28.92;;
58139;SDS011;53185;47.378;18.922;2024-01-15T08:45:10;67.25;;;28.23;;
58139;SDS011;53185;47.378;18.922;2024-01-15T08:47:38;75.85;;;29.98;;
58139;SDS011;53185;47.378;18.922;2024-01-15T08:50:09;61.33;;;26.65;;
58139;SDS011;53185;47.378;18.922;2024-01-15T08:52:37;64.93;;;25.33;;
58139;SDS011;53185;47.378;18.922;2024-01-15T08:55:04;60.42;;;25.80;;
58139;SDS011;53185;47.378;18.922;2024-01-15T08:57:32;91.85;;;36.20;;
58139;SDS011;53185;47.378;18.922;2024-01-15T08:59:59;66.53;;;25.95;;
58139;SDS011;53185;47.378;18.922;2024-01-15T09:02:27;83.93;;;34.67;;
58139;SDS011;53185;47.378;18.922;2024-01-15T09:04:54;63.30;;;26.30;;
58139;SDS011;53185;47.378;18.922;2024-01-15T09:07:23;78.97;;;33.38;;
58139;SDS011;53185;47.378;18.922;2024-01-15T09:09:52;69.15;;;30.50;;
58139;SDS011;53185;47.378;18.922;2024-01-15T09:12:20;62.47;;;26.52;;
58139;SDS011;53185;47.378;18.922;2024-01-15T09:14:49;71.82;;;29.55;;
58139;SDS011;53185;47.378;18.922;2024-01-15T09:21:15;66.53;;;26.05;;
58139;SDS011;53185;47.378;18.922;2024-01-15T09:23:44;66.45;;;29.17;;
58139;SDS011;53185;47.378;18.922;2024-01-15T09:28:43;69.78;;;28.83;;
58139;SDS011;53185;47.378;18.922;2024-01-15T09:31:11;69.30;;;28.10;;
58139;SDS011;53185;47.378;18.922;2024-01-15T09:33:42;64.82;;;25.73;;
58139;SDS011;53185;47.378;18.922;2024-01-15T09:36:11;51.28;;;22.70;;
58139;SDS011;53185;47.378;18.922;2024-01-15T09:38:40;37.78;;;17.77;;
58139;SDS011;53185;47.378;18.922;2024-01-15T09:41:09;44.05;;;17.85;;
58139;SDS011;53185;47.378;18.922;2024-01-15T09:43:38;30.42;;;14.85;;
58139;SDS011;53185;47.378;18.922;2024-01-15T09:46:06;31.77;;;14.30;;
58139;SDS011;53185;47.378;18.922;2024-01-15T09:48:36;24.95;;;11.20;;
58139;SDS011;53185;47.378;18.922;2024-01-15T09:51:09;28.98;;;13.02;;
58139;SDS011;53185;47.378;18.922;2024-01-15T09:53:40;24.73;;;10.48;;
58139;SDS011;53185;47.378;18.922;2024-01-15T09:56:09;38.78;;;16.25;;
58139;SDS011;53185;47.378;18.922;2024-01-15T09:58:41;37.30;;;15.55;;
58139;SDS011;53185;47.378;18.922;2024-01-15T10:01:13;35.50;;;13.18;;
58139;SDS011;53185;47.378;18.922;2024-01-15T10:03:43;28.25;;;10.98;;
58139;SDS011;53185;47.378;18.922;2024-01-15T10:09:42;24.00;;;9.80;;
58139;SDS011;53185;47.378;18.922;2024-01-15T10:12:10;24.15;;;8.95;;
58139;SDS011;53185;47.378;18.922;2024-01-15T10:21:28;22.92;;;8.63;;
58139;SDS011;53185;47.378;18.922;2024-01-15T10:23:59;19.02;;;8.90;;
58139;SDS011;53185;47.378;18.922;2024-01-15T10:26:28;23.52;;;6.70;;
58139;SDS011;53185;47.378;18.922;2024-01-15T10:28:55;17.15;;;6.90;;
58139;SDS011;53185;47.378;18.922;2024-01-15T10:31:25;26.33;;;9.05;;
58139;SDS011;53185;47.378;18.922;2024-01-15T10:34:09;17.02;;;7.90;;
58139;SDS011;53185;47.378;18.922;2024-01-15T10:36:39;19.35;;;7.93;;
58139;SDS011;53185;47.378;18.922;2024-01-15T10:39:08;18.40;;;8.20;;
58139;SDS011;53185;47.378;18.922;2024-01-15T10:41:36;15.98;;;8.10;;
58139;SDS011;53185;47.378;18.922;2024-01-15T10:44:04;19.77;;;9.15;;
58139;SDS011;53185;47.378;18.922;2024-01-15T10:46:32;15.88;;;7.68;;
58139;SDS011;53185;47.378;18.922;2024-01-15T10:49:01;23.25;;;6.62;;
58139;SDS011;53185;47.378;18.922;2024-01-15T10:51:30;13.18;;;6.40;;
58139;SDS011;53185;47.378;18.922;2024-01-15T10:53:57;14.13;;;6.28;;
58139;SDS011;53185;47.378;18.922;2024-01-15T10:56:27;8.75;;;4.75;;
58139;SDS011;53185;47.378;18.922;2024-01-15T10:58:55;12.85;;;5.15;;
58139;SDS011;53185;47.378;18.922;2024-01-15T11:01:26;8.65;;;4.85;;
58139;SDS011;53185;47.378;18.922;2024-01-15T11:03:57;23.65;;;6.68;;
58139;SDS011;53185;47.378;18.922;2024-01-15T11:06:43;16.30;;;6.40;;
58139;SDS011;53185;47.378;18.922;2024-01-15T11:09:17;15.15;;;5.80;;
58139;SDS011;53185;47.378;18.922;2024-01-15T11:11:46;11.43;;;4.18;;
58139;SDS011;53185;47.378;18.922;2024-01-15T11:17:03;7.87;;;4.45;;
58139;SDS011;53185;47.378;18.922;2024-01-15T11:19:44;13.65;;;6.12;;
58139;SDS011;53185;47.378;18.922;2024-01-15T11:25:03;20.58;;;6.75;;
58139;SDS011;53185;47.378;18.922;2024-01-15T11:27:41;23.38;;;8.38;;
58139;SDS011;53185;47.378;18.922;2024-01-15T11:30:11;22.33;;;9.77;;
58139;SDS011;53185;47.378;18.922;2024-01-15T11:32:40;12.45;;;6.18;;
58139;SDS011;53185;47.378;18.922;2024-01-15T11:35:10;13.73;;;6.03;;
58139;SDS011;53185;47.378;18.922;2024-01-15T11:40:23;18.55;;;8.93;;
58139;SDS011;53185;47.378;18.922;2024-01-15T11:43:05;18.50;;;8.73;;
58139;SDS011;53185;47.378;18.922;2024-01-15T11:45:34;16.65;;;8.50;;
58139;SDS011;53185;47.378;18.922;2024-01-15T11:50:46;28.87;;;9.98;;
58139;SDS011;53185;47.378;18.922;2024-01-15T11:53:33;23.35;;;9.07;;
58139;SDS011;53185;47.378;18.922;2024-01-15T11:56:03;29.77;;;11.20;;
58139;SDS011;53185;47.378;18.922;2024-01-15T11:58:35;11.70;;;5.25;;
58139;SDS011;53185;47.378;18.922;2024-01-15T12:01:04;23.15;;;9.25;;
58139;SDS011;53185;47.378;18.922;2024-01-15T12:03:32;13.07;;;4.30;;
58139;SDS011;53185;47.378;18.922;2024-01-15T12:06:00;19.60;;;5.03;;
58139;SDS011;53185;47.378;18.922;2024-01-15T12:10:59;12.48;;;4.47;;
58139;SDS011;53185;47.378;18.922;2024-01-15T12:16:56;7.37;;;3.83;;
58139;SDS011;53185;47.378;18.922;2024-01-15T12:19:24;9.07;;;3.45;;
58139;SDS011;53185;47.378;18.922;2024-01-15T12:21:52;8.30;;;3.35;;
58139;SDS011;53185;47.378;18.922;2024-01-15T12:24:21;8.98;;;3.12;;
58139;SDS011;53185;47.378;18.922;2024-01-15T12:26:50;6.20;;;3.50;;
58139;SDS011;53185;47.378;18.922;2024-01-15T12:29:18;7.15;;;2.40;;
58139;SDS011;53185;47.378;18.922;2024-01-15T12:31:47;10.77;;;4.93;;
58139;SDS011;53185;47.378;18.922;2024-01-15T12:34:17;5.93;;;2.58;;
58139;SDS011;53185;47.378;18.922;2024-01-15T12:36:48;7.25;;;2.83;;
58139;SDS011;53185;47.378;18.922;2024-01-15T12:39:17;9.93;;;4.70;;
58139;SDS011;53185;47.378;18.922;2024-01-15T12:41:48;6.93;;;3.45;;
58139;SDS011;53185;47.378;18.922;2024-01-15T12:46:47;10.75;;;3.20;;
58139;SDS011;53185;47.378;18.922;2024-01-15T12:49:17;8.63;;;3.08;;
58139;SDS011;53185;47.378;18.922;2024-01-15T12:51:56;10.07;;;3.70;;
58139;SDS011;53185;47.378;18.922;2024-01-15T12:54:25;3.67;;;2.40;;
58139;SDS011;53185;47.378;18.922;2024-01-15T12:56:54;3.40;;;1.87;;
58139;SDS011;53185;47.378;18.922;2024-01-15T12:59:22;6.45;;;2.72;;
58139;SDS011;53185;47.378;18.922;2024-01-15T13:01:50;5.80;;;3.00;;
58139;SDS011;53185;47.378;18.922;2024-01-15T13:04:24;8.35;;;3.12;;
58139;SDS011;53185;47.378;18.922;2024-01-15T13:06:53;7.70;;;3.03;;
58139;SDS011;53185;47.378;18.922;2024-01-15T13:09:22;6.15;;;2.72;;
58139;SDS011;53185;47.378;18.922;2024-01-15T13:11:49;14.18;;;5.22;;
58139;SDS011;53185;47.378;18.922;2024-01-15T13:14:17;4.97;;;3.10;;
58139;SDS011;53185;47.378;18.922;2024-01-15T13:16:47;7.72;;;3.08;;
58139;SDS011;53185;47.378;18.922;2024-01-15T13:19:15;10.50;;;3.50;;
58139;SDS011;53185;47.378;18.922;2024-01-15T13:21:43;9.68;;;4.25;;
58139;SDS011;53185;47.378;18.922;2024-01-15T13:24:11;8.75;;;3.97;;
58139;SDS011;53185;47.378;18.922;2024-01-15T13:26:40;4.37;;;2.20;;
58139;SDS011;53185;47.378;18.922;2024-01-15T13:29:10;12.48;;;5.20;;
58139;SDS011;53185;47.378;18.922;2024-01-15T13:34:06;7.30;;;2.97;;
58139;SDS011;53185;47.378;18.922;2024-01-15T13:36:34;8.25;;;3.50;;
58139;SDS011;53185;47.378;18.922;2024-01-15T13:39:02;14.40;;;4.30;;
58139;SDS011;53185;47.378;18.922;2024-01-15T13:41:33;7.50;;;2.97;;
58139;SDS011;53185;47.378;18.922;2024-01-15T13:44:00;6.93;;;2.90;;
58139;SDS011;53185;47.378;18.922;2024-01-15T13:46:29;25.77;;;4.00;;
58139;SDS011;53185;47.378;18.922;2024-01-15T13:48:56;5.90;;;3.55;;
58139;SDS011;53185;47.378;18.922;2024-01-15T13:51:24;9.60;;;4.70;;
58139;SDS011;53185;47.378;18.922;2024-01-15T13:53:52;13.50;;;3.83;;
58139;SDS011;53185;47.378;18.922;2024-01-15T13:56:20;11.50;;;5.05;;
58139;SDS011;53185;47.378;18.922;2024-01-15T13:58:53;14.35;;;5.40;;
58139;SDS011;53185;47.378;18.922;2024-01-15T14:01:22;8.38;;;3.17;;
58139;SDS011;53185;47.378;18.922;2024-01-15T14:03:50;10.85;;;3.67;;
58139;SDS011;53185;47.378;18.922;2024-01-15T14:06:18;6.00;;;3.45;;
58139;SDS011;53185;47.378;18.922;2024-01-15T14:08:46;5.82;;;3.33;;
58139;SDS011;53185;47.378;18.922;2024-01-15T14:11:14;9.38;;;4.15;;
58139;SDS011;53185;47.378;18.922;2024-01-15T14:13:42;16.87;;;7.45;;
58139;SDS011;53185;47.378;18.922;2024-01-15T14:16:10;10.45;;;4.40;;
58139;SDS011;53185;47.378;18.922;2024-01-15T14:18:39;7.28;;;3.08;;
58139;SDS011;53185;47.378;18.922;2024-01-15T14:21:07;13.52;;;4.90;;
58139;SDS011;53185;47.378;18.922;2024-01-15T14:23:35;12.48;;;5.53;;
58139;SDS011;53185;47.378;18.922;2024-01-15T14:26:05;10.85;;;4.62;;
58139;SDS011;53185;47.378;18.922;2024-01-15T14:28:33;8.88;;;3.72;;
58139;SDS011;53185;47.378;18.922;2024-01-15T14:31:01;14.05;;;3.67;;
58139;SDS011;53185;47.378;18.922;2024-01-15T14:33:29;11.15;;;5.75;;
58139;SDS011;53185;47.378;18.922;2024-01-15T14:36:00;14.73;;;5.93;;
58139;SDS011;53185;47.378;18.922;2024-01-15T14:38:27;10.82;;;4.80;;
58139;SDS011;53185;47.378;18.922;2024-01-15T14:41:01;10.38;;;4.62;;
58139;SDS011;53185;47.378;18.922;2024-01-15T14:43:29;20.83;;;4.72;;
58139;SDS011;53185;47.378;18.922;2024-01-15T14:45:58;10.27;;;4.22;;
58139;SDS011;53185;47.378;18.922;2024-01-15T14:48:29;14.10;;;5.00;;
58139;SDS011;53185;47.378;18.922;2024-01-15T14:50:57;13.82;;;5.95;;
58139;SDS011;53185;47.378;18.922;2024-01-15T14:53:25;12.63;;;5.45;;
58139;SDS011;53185;47.378;18.922;2024-01-15T14:55:53;14.52;;;5.00;;
58139;SDS011;53185;47.378;18.922;2024-01-15T14:58:24;10.80;;;4.53;;
58139;SDS011;53185;47.378;18.922;2024-01-15T15:00:52;10.70;;;5.15;;
58139;SDS011;53185;47.378;18.922;2024-01-15T15:03:20;11.30;;;4.55;;
58139;SDS011;53185;47.378;18.922;2024-01-15T15:05:49;14.30;;;5.30;;